sensor_id;sensor_type;location;lat;lon;timestamp;P1;durP1;ratioP1;P2;durP2;ratioP2
7917;SDS011;4004;42.624;23.386;2022-10-13T00:00:38;6.27;;;5.67;;
7917;SDS011;4004;42.624;23.386;2022-10-13T00:03:05;7.43;;;5.53;;
7917;SDS011;4004;42.624;23.386;2022-10-13T00:05:33;5.73;;;5.20;;
7917;SDS011;4004;42.624;23.386;2022-10-13T00:08:00;7.47;;;5.10;;
7917;SDS011;4004;42.624;23.386;2022-10-13T00:10:27;5.57;;;5.07;;
7917;SDS011;4004;42.624;23.386;2022-10-13T00:12:54;6.50;;;5.63;;
7917;SDS011;4004;42.624;23.386;2022-10-13T00:15:20;6.33;;;4.97;;
7917;SDS011;4004;42.624;23.386;2022-10-13T00:17:50;6.33;;;5.07;;
7917;SDS011;4004;42.624;23.386;2022-10-13T00:20:16;8.03;;;5.47;;
7917;SDS011;4004;42.624;23.386;2022-10-13T00:22:45;6.37;;;5.77;;
7917;SDS011;4004;42.624;23.386;2022-10-13T00:25:11;5.63;;;5.13;;
7917;SDS011;4004;42.624;23.386;2022-10-13T00:27:38;6.67;;;5.70;;
7917;SDS011;4004;42.624;23.386;2022-10-13T00:30:05;7.80;;;6.47;;
7917;SDS011;4004;42.624;23.386;2022-10-13T00:32:32;9.10;;;6.23;;
7917;SDS011;4004;42.624;23.386;2022-10-13T00:34:59;9.93;;;7.17;;
7917;SDS011;4004;42.624;23.386;2022-10-13T00:37:26;9.60;;;7.67;;
7917;SDS011;4004;42.624;23.386;2022-10-13T00:39:54;8.43;;;6.63;;
7917;SDS011;4004;42.624;23.386;2022-10-13T00:42:20;9.87;;;7.00;;
7917;SDS011;4004;42.624;23.386;2022-10-13T00:44:58;8.20;;;7.40;;
7917;SDS011;4004;42.624;23.386;2022-10-13T00:47:32;9.10;;;8.03;;
7917;SDS011;4004;42.624;23.386;2022-10-13T00:50:03;9.40;;;8.37;;
7917;SDS011;4004;42.624;23.386;2022-10-13T00:52:31;10.30;;;8.13;;
7917;SDS011;4004;42.624;23.386;2022-10-13T00:55:00;8.87;;;7.43;;
7917;SDS011;4004;42.624;23.386;2022-10-13T00:57:28;8.67;;;7.77;;
7917;SDS011;4004;42.624;23.386;2022-10-13T00:59:55;9.33;;;8.03;;
7917;SDS011;4004;42.624;23.386;2022-10-13T01:02:22;8.13;;;7.33;;
7917;SDS011;4004;42.624;23.386;2022-10-13T01:04:56;9.10;;;7.60;;
7917;SDS011;4004;42.624;23.386;2022-10-13T01:07:24;10.23;;;7.57;;
7917;SDS011;4004;42.624;23.386;2022-10-13T01:09:51;9.83;;;7.50;;
7917;SDS011;4004;42.624;23.386;2022-10-13T01:12:24;8.37;;;7.60;;
7917;SDS011;4004;42.624;23.386;2022-10-13T01:15:02;8.77;;;7.80;;
7917;SDS011;4004;42.624;23.386;2022-10-13T01:17:36;8.30;;;7.50;;
7917;SDS011;4004;42.624;23.386;2022-10-13T01:20:21;9.33;;;7.80;;
7917;SDS011;4004;42.624;23.386;2022-10-13T01:23:31;9.90;;;8.90;;
7917;SDS011;4004;42.624;23.386;2022-10-13T01:26:25;9.73;;;7.90;;
7917;SDS011;4004;42.624;23.386;2022-10-13T01:29:15;9.93;;;8.00;;
7917;SDS011;4004;42.624;23.386;2022-10-13T01:31:58;11.13;;;8.43;;
7917;SDS011;4004;42.624;23.386;2022-10-13T01:34:31;9.40;;;8.40;;
7917;SDS011;4004;42.624;23.386;2022-10-13T01:37:06;12.03;;;8.23;;
7917;SDS011;4004;42.624;23.386;2022-10-13T01:39:43;15.53;;;9.50;;
7917;SDS011;4004;42.624;23.386;2022-10-13T01:42:17;10.87;;;8.67;;
7917;SDS011;4004;42.624;23.386;2022-10-13T01:44:48;11.20;;;9.17;;
7917;SDS011;4004;42.624;23.386;2022-10-13T01:47:19;10.97;;;8.90;;
7917;SDS011;4004;42.624;23.386;2022-10-13T01:49:49;12.70;;;9.67;;
7917;SDS011;4004;42.624;23.386;2022-10-13T01:52:18;11.57;;;9.07;;
7917;SDS011;4004;42.624;23.386;2022-10-13T01:54:48;10.97;;;9.30;;
7917;SDS011;4004;42.624;23.386;2022-10-13T01:57:26;12.10;;;10.83;;
7917;SDS011;4004;42.624;23.386;2022-10-13T01:59:56;13.23;;;11.50;;
7917;SDS011;4004;42.624;23.386;2022-10-13T02:02:25;13.63;;;11.73;;
7917;SDS011;4004;42.624;23.386;2022-10-13T02:04:59;14.80;;;11.93;;
7917;SDS011;4004;42.624;23.386;2022-10-13T02:07:35;13.40;;;11.37;;
7917;SDS011;4004;42.624;23.386;2022-10-13T02:10:07;13.70;;;11.03;;
7917;SDS011;4004;42.624;23.386;2022-10-13T02:12:41;13.13;;;11.20;;
7917;SDS011;4004;42.624;23.386;2022-10-13T02:15:15;13.17;;;10.90;;
7917;SDS011;4004;42.624;23.386;2022-10-13T02:17:46;12.17;;;10.90;;
7917;SDS011;4004;42.624;23.386;2022-10-13T02:20:14;12.67;;;11.37;;
7917;SDS011;4004;42.624;23.386;2022-10-13T02:22:45;12.53;;;10.57;;
7917;SDS011;4004;42.624;23.386;2022-10-13T02:25:16;11.53;;;10.33;;
7917;SDS011;4004;42.624;23.386;2022-10-13T02:27:42;13.57;;;11.57;;
7917;SDS011;4004;42.624;23.386;2022-10-13T02:30:18;11.93;;;10.00;;
7917;SDS011;4004;42.624;23.386;2022-10-13T02:32:47;13.90;;;10.40;;
7917;SDS011;4004;42.624;23.386;2022-10-13T02:35:14;12.43;;;10.50;;
7917;SDS011;4004;42.624;23.386;2022-10-13T02:37:40;13.00;;;11.27;;
7917;SDS011;4004;42.624;23.386;2022-10-13T02:40:08;13.13;;;11.43;;
7917;SDS011;4004;42.624;23.386;2022-10-13T02:42:35;13.27;;;11.47;;
7917;SDS011;4004;42.624;23.386;2022-10-13T02:45:02;12.60;;;11.13;;
7917;SDS011;4004;42.624;23.386;2022-10-13T02:47:30;12.80;;;11.00;;
7917;SDS011;4004;42.624;23.386;2022-10-13T02:49:58;12.53;;;10.40;;
7917;SDS011;4004;42.624;23.386;2022-10-13T02:52:25;13.73;;;11.50;;
7917;SDS011;4004;42.624;23.386;2022-10-13T02:54:51;13.50;;;11.43;;
7917;SDS011;4004;42.624;23.386;2022-10-13T02:57:18;12.30;;;11.03;;
7917;SDS011;4004;42.624;23.386;2022-10-13T02:59:45;12.97;;;11.50;;
7917;SDS011;4004;42.624;23.386;2022-10-13T03:02:12;17.77;;;12.57;;
7917;SDS011;4004;42.624;23.386;2022-10-13T03:04:38;14.33;;;11.80;;
7917;SDS011;4004;42.624;23.386;2022-10-13T03:07:06;15.33;;;12.33;;
7917;SDS011;4004;42.624;23.386;2022-10-13T03:09:33;14.30;;;12.03;;
7917;SDS011;4004;42.624;23.386;2022-10-13T03:12:00;13.37;;;11.97;;
7917;SDS011;4004;42.624;23.386;2022-10-13T03:14:27;14.87;;;12.00;;
7917;SDS011;4004;42.624;23.386;2022-10-13T03:16:54;16.77;;;12.37;;
7917;SDS011;4004;42.624;23.386;2022-10-13T03:19:21;14.63;;;13.03;;
7917;SDS011;4004;42.624;23.386;2022-10-13T03:21:48;14.33;;;11.83;;
7917;SDS011;4004;42.624;23.386;2022-10-13T03:24:16;13.87;;;12.37;;
7917;SDS011;4004;42.624;23.386;2022-10-13T03:26:43;14.33;;;12.83;;
7917;SDS011;4004;42.624;23.386;2022-10-13T03:29:11;13.80;;;12.23;;
7917;SDS011;4004;42.624;23.386;2022-10-13T03:31:39;13.63;;;11.63;;
7917;SDS011;4004;42.624;23.386;2022-10-13T03:34:06;14.90;;;13.30;;
7917;SDS011;4004;42.624;23.386;2022-10-13T03:36:33;15.47;;;13.13;;
7917;SDS011;4004;42.624;23.386;2022-10-13T03:38:59;16.80;;;13.23;;
7917;SDS011;4004;42.624;23.386;2022-10-13T03:41:28;15.73;;;14.03;;
7917;SDS011;4004;42.624;23.386;2022-10-13T03:43:55;16.67;;;13.63;;
7917;SDS011;4004;42.624;23.386;2022-10-13T03:46:22;14.67;;;12.93;;
7917;SDS011;4004;42.624;23.386;2022-10-13T03:48:51;18.90;;;14.13;;
7917;SDS011;4004;42.624;23.386;2022-10-13T03:51:18;15.10;;;13.50;;
7917;SDS011;4004;42.624;23.386;2022-10-13T03:53:47;15.07;;;13.30;;
7917;SDS011;4004;42.624;23.386;2022-10-13T03:56:15;15.43;;;12.93;;
7917;SDS011;4004;42.624;23.386;2022-10-13T03:58:44;18.33;;;13.87;;
7917;SDS011;4004;42.624;23.386;2022-10-13T04:01:11;17.93;;;13.73;;
7917;SDS011;4004;42.624;23.386;2022-10-13T04:03:40;18.77;;;14.47;;
7917;SDS011;4004;42.624;23.386;2022-10-13T04:06:08;18.00;;;14.40;;
7917;SDS011;4004;42.624;23.386;2022-10-13T04:08:35;16.73;;;13.40;;
7917;SDS011;4004;42.624;23.386;2022-10-13T04:11:03;16.17;;;13.23;;
7917;SDS011;4004;42.624;23.386;2022-10-13T04:13:32;29.43;;;22.53;;
7917;SDS011;4004;42.624;23.386;2022-10-13T04:16:02;24.53;;;21.17;;
7917;SDS011;4004;42.624;23.386;2022-10-13T04:18:29;16.70;;;12.93;;
7917;SDS011;4004;42.624;23.386;2022-10-13T04:20:56;19.13;;;12.63;;
7917;SDS011;4004;42.624;23.386;2022-10-13T04:23:23;15.23;;;12.97;;
7917;SDS011;4004;42.624;23.386;2022-10-13T04:25:50;15.23;;;12.40;;
7917;SDS011;4004;42.624;23.386;2022-10-13T04:28:16;16.03;;;13.23;;
7917;SDS011;4004;42.624;23.386;2022-10-13T04:30:43;15.73;;;12.83;;
7917;SDS011;4004;42.624;23.386;2022-10-13T04:33:11;14.30;;;12.23;;
7917;SDS011;4004;42.624;23.386;2022-10-13T04:35:38;16.83;;;13.97;;
7917;SDS011;4004;42.624;23.386;2022-10-13T04:38:06;16.27;;;14.17;;
7917;SDS011;4004;42.624;23.386;2022-10-13T04:40:33;15.27;;;12.83;;
7917;SDS011;4004;42.624;23.386;2022-10-13T04:43:00;17.83;;;14.13;;
7917;SDS011;4004;42.624;23.386;2022-10-13T04:45:27;18.50;;;14.07;;
7917;SDS011;4004;42.624;23.386;2022-10-13T04:47:53;15.43;;;12.97;;
7917;SDS011;4004;42.624;23.386;2022-10-13T04:50:21;21.07;;;14.20;;
7917;SDS011;4004;42.624;23.386;2022-10-13T04:52:48;14.97;;;12.90;;
7917;SDS011;4004;42.624;23.386;2022-10-13T04:55:15;19.23;;;12.30;;
7917;SDS011;4004;42.624;23.386;2022-10-13T04:57:42;19.33;;;13.17;;
7917;SDS011;4004;42.624;23.386;2022-10-13T05:00:09;15.00;;;12.30;;
7917;SDS011;4004;42.624;23.386;2022-10-13T05:02:36;16.90;;;13.70;;
7917;SDS011;4004;42.624;23.386;2022-10-13T05:05:04;15.00;;;13.20;;
7917;SDS011;4004;42.624;23.386;2022-10-13T05:07:32;19.97;;;12.87;;
7917;SDS011;4004;42.624;23.386;2022-10-13T05:09:59;17.87;;;13.43;;
7917;SDS011;4004;42.624;23.386;2022-10-13T05:12:26;15.00;;;12.97;;
7917;SDS011;4004;42.624;23.386;2022-10-13T05:14:53;16.73;;;13.50;;
7917;SDS011;4004;42.624;23.386;2022-10-13T05:17:20;16.67;;;13.57;;
7917;SDS011;4004;42.624;23.386;2022-10-13T05:19:47;15.83;;;13.57;;
7917;SDS011;4004;42.624;23.386;2022-10-13T05:22:14;17.23;;;13.50;;
7917;SDS011;4004;42.624;23.386;2022-10-13T05:24:42;20.40;;;13.77;;
7917;SDS011;4004;42.624;23.386;2022-10-13T05:27:10;17.67;;;13.83;;
7917;SDS011;4004;42.624;23.386;2022-10-13T05:29:38;26.73;;;15.33;;
7917;SDS011;4004;42.624;23.386;2022-10-13T05:32:05;24.60;;;17.20;;
7917;SDS011;4004;42.624;23.386;2022-10-13T05:34:33;27.33;;;22.47;;
7917;SDS011;4004;42.624;23.386;2022-10-13T05:36:59;38.43;;;27.37;;
7917;SDS011;4004;42.624;23.386;2022-10-13T05:39:26;39.97;;;28.37;;
7917;SDS011;4004;42.624;23.386;2022-10-13T05:41:55;37.33;;;25.47;;
7917;SDS011;4004;42.624;23.386;2022-10-13T05:44:21;35.37;;;23.50;;
7917;SDS011;4004;42.624;23.386;2022-10-13T05:46:48;40.35;;;26.52;;
7917;SDS011;4004;42.624;23.386;2022-10-13T05:49:15;31.80;;;23.40;;
7917;SDS011;4004;42.624;23.386;2022-10-13T05:51:43;32.90;;;23.73;;
7917;SDS011;4004;42.624;23.386;2022-10-13T05:54:12;32.27;;;23.30;;
7917;SDS011;4004;42.624;23.386;2022-10-13T05:56:43;35.23;;;23.60;;
7917;SDS011;4004;42.624;23.386;2022-10-13T05:59:15;43.20;;;25.67;;
7917;SDS011;4004;42.624;23.386;2022-10-13T06:01:44;32.93;;;24.87;;
7917;SDS011;4004;42.624;23.386;2022-10-13T06:04:13;41.07;;;24.93;;
7917;SDS011;4004;42.624;23.386;2022-10-13T06:06:43;40.90;;;24.50;;
7917;SDS011;4004;42.624;23.386;2022-10-13T06:09:11;36.53;;;22.10;;
7917;SDS011;4004;42.624;23.386;2022-10-13T06:11:37;32.60;;;21.80;;
7917;SDS011;4004;42.624;23.386;2022-10-13T06:14:04;35.43;;;21.20;;
7917;SDS011;4004;42.624;23.386;2022-10-13T06:16:34;26.27;;;20.43;;
7917;SDS011;4004;42.624;23.386;2022-10-13T06:19:02;37.07;;;19.70;;
7917;SDS011;4004;42.624;23.386;2022-10-13T06:21:29;31.30;;;18.17;;
7917;SDS011;4004;42.624;23.386;2022-10-13T06:23:55;26.13;;;18.07;;
7917;SDS011;4004;42.624;23.386;2022-10-13T06:26:22;26.57;;;18.10;;
7917;SDS011;4004;42.624;23.386;2022-10-13T06:28:49;29.97;;;16.73;;
7917;SDS011;4004;42.624;23.386;2022-10-13T06:31:16;28.20;;;17.23;;
7917;SDS011;4004;42.624;23.386;2022-10-13T06:33:44;23.70;;;17.33;;
7917;SDS011;4004;42.624;23.386;2022-10-13T06:36:10;28.93;;;17.53;;
7917;SDS011;4004;42.624;23.386;2022-10-13T06:38:37;33.53;;;17.10;;
7917;SDS011;4004;42.624;23.386;2022-10-13T06:41:04;24.70;;;16.77;;
7917;SDS011;4004;42.624;23.386;2022-10-13T06:43:31;23.60;;;16.23;;
7917;SDS011;4004;42.624;23.386;2022-10-13T06:45:58;18.27;;;14.00;;
7917;SDS011;4004;42.624;23.386;2022-10-13T06:48:25;16.63;;;13.23;;
7917;SDS011;4004;42.624;23.386;2022-10-13T06:50:54;18.17;;;13.37;;
7917;SDS011;4004;42.624;23.386;2022-10-13T06:53:25;16.37;;;12.30;;
7917;SDS011;4004;42.624;23.386;2022-10-13T06:55:54;22.37;;;13.50;;
7917;SDS011;4004;42.624;23.386;2022-10-13T06:58:21;14.90;;;11.33;;
7917;SDS011;4004;42.624;23.386;2022-10-13T07:00:48;12.27;;;11.00;;
7917;SDS011;4004;42.624;23.386;2022-10-13T07:03:15;11.57;;;10.37;;
7917;SDS011;4004;42.624;23.386;2022-10-13T07:05:41;15.73;;;11.67;;
7917;SDS011;4004;42.624;23.386;2022-10-13T07:08:09;14.37;;;12.20;;
7917;SDS011;4004;42.624;23.386;2022-10-13T07:10:37;18.00;;;12.83;;
7917;SDS011;4004;42.624;23.386;2022-10-13T07:13:04;17.33;;;13.03;;
7917;SDS011;4004;42.624;23.386;2022-10-13T07:15:31;18.57;;;14.07;;
7917;SDS011;4004;42.624;23.386;2022-10-13T07:17:58;16.13;;;14.07;;
7917;SDS011;4004;42.624;23.386;2022-10-13T07:20:24;22.47;;;14.67;;
7917;SDS011;4004;42.624;23.386;2022-10-13T07:22:51;25.87;;;16.40;;
7917;SDS011;4004;42.624;23.386;2022-10-13T07:25:20;25.73;;;18.23;;
7917;SDS011;4004;42.624;23.386;2022-10-13T07:27:47;28.27;;;18.10;;
7917;SDS011;4004;42.624;23.386;2022-10-13T07:30:14;28.77;;;19.30;;
7917;SDS011;4004;42.624;23.386;2022-10-13T07:32:41;27.53;;;17.57;;
7917;SDS011;4004;42.624;23.386;2022-10-13T07:35:07;25.43;;;20.07;;
7917;SDS011;4004;42.624;23.386;2022-10-13T07:37:35;25.70;;;19.07;;
7917;SDS011;4004;42.624;23.386;2022-10-13T07:40:03;38.60;;;19.40;;
7917;SDS011;4004;42.624;23.386;2022-10-13T07:42:32;27.17;;;17.40;;
7917;SDS011;4004;42.624;23.386;2022-10-13T07:44:59;27.17;;;19.48;;
7917;SDS011;4004;42.624;23.386;2022-10-13T07:47:26;29.77;;;18.13;;
7917;SDS011;4004;42.624;23.386;2022-10-13T07:49:53;23.40;;;18.30;;
7917;SDS011;4004;42.624;23.386;2022-10-13T07:52:20;34.43;;;17.60;;
7917;SDS011;4004;42.624;23.386;2022-10-13T07:54:48;29.17;;;19.10;;
7917;SDS011;4004;42.624;23.386;2022-10-13T07:57:15;25.90;;;18.73;;
7917;SDS011;4004;42.624;23.386;2022-10-13T07:59:43;25.80;;;17.67;;
7917;SDS011;4004;42.624;23.386;2022-10-13T08:02:10;26.97;;;18.03;;
7917;SDS011;4004;42.624;23.386;2022-10-13T08:04:37;25.77;;;17.87;;
7917;SDS011;4004;42.624;23.386;2022-10-13T08:07:03;28.67;;;17.23;;
7917;SDS011;4004;42.624;23.386;2022-10-13T08:09:31;21.80;;;16.93;;
7917;SDS011;4004;42.624;23.386;2022-10-13T08:11:58;27.70;;;18.20;;
7917;SDS011;4004;42.624;23.386;2022-10-13T08:14:24;22.57;;;18.13;;
7917;SDS011;4004;42.624;23.386;2022-10-13T08:16:53;26.07;;;17.27;;
7917;SDS011;4004;42.624;23.386;2022-10-13T08:19:20;30.23;;;19.33;;
7917;SDS011;4004;42.624;23.386;2022-10-13T08:21:47;24.03;;;17.90;;
7917;SDS011;4004;42.624;23.386;2022-10-13T08:24:14;29.00;;;19.13;;
7917;SDS011;4004;42.624;23.386;2022-10-13T08:26:43;35.70;;;17.40;;
7917;SDS011;4004;42.624;23.386;2022-10-13T08:29:10;24.53;;;16.23;;
7917;SDS011;4004;42.624;23.386;2022-10-13T08:31:38;19.37;;;17.10;;
7917;SDS011;4004;42.624;23.386;2022-10-13T08:34:06;24.50;;;16.70;;
7917;SDS011;4004;42.624;23.386;2022-10-13T08:36:33;24.63;;;17.30;;
7917;SDS011;4004;42.624;23.386;2022-10-13T08:39:00;28.83;;;17.97;;
7917;SDS011;4004;42.624;23.386;2022-10-13T08:41:29;24.47;;;16.93;;
7917;SDS011;4004;42.624;23.386;2022-10-13T08:44:00;30.90;;;17.10;;
7917;SDS011;4004;42.624;23.386;2022-10-13T08:46:31;26.93;;;19.70;;
7917;SDS011;4004;42.624;23.386;2022-10-13T08:49:03;31.87;;;19.40;;
7917;SDS011;4004;42.624;23.386;2022-10-13T08:51:32;22.47;;;17.90;;
7917;SDS011;4004;42.624;23.386;2022-10-13T08:54:00;20.20;;;15.80;;
7917;SDS011;4004;42.624;23.386;2022-10-13T08:56:28;25.63;;;16.43;;
7917;SDS011;4004;42.624;23.386;2022-10-13T08:58:58;22.00;;;18.13;;
7917;SDS011;4004;42.624;23.386;2022-10-13T09:01:28;23.20;;;16.73;;
7917;SDS011;4004;42.624;23.386;2022-10-13T09:03:59;32.00;;;17.90;;
7917;SDS011;4004;42.624;23.386;2022-10-13T09:06:43;25.30;;;14.67;;
7917;SDS011;4004;42.624;23.386;2022-10-13T09:09:13;26.03;;;16.37;;
7917;SDS011;4004;42.624;23.386;2022-10-13T09:11:42;22.43;;;16.00;;
7917;SDS011;4004;42.624;23.386;2022-10-13T09:14:11;26.43;;;17.10;;
7917;SDS011;4004;42.624;23.386;2022-10-13T09:16:48;40.67;;;19.70;;
7917;SDS011;4004;42.624;23.386;2022-10-13T09:19:20;27.17;;;17.70;;
7917;SDS011;4004;42.624;23.386;2022-10-13T09:21:51;27.97;;;16.37;;
7917;SDS011;4004;42.624;23.386;2022-10-13T09:24:21;21.70;;;15.23;;
7917;SDS011;4004;42.624;23.386;2022-10-13T09:26:49;24.27;;;15.87;;
7917;SDS011;4004;42.624;23.386;2022-10-13T09:29:27;20.87;;;14.43;;
7917;SDS011;4004;42.624;23.386;2022-10-13T09:32:06;18.03;;;13.50;;
7917;SDS011;4004;42.624;23.386;2022-10-13T09:34:38;14.93;;;12.67;;
7917;SDS011;4004;42.624;23.386;2022-10-13T09:37:15;15.43;;;12.10;;
7917;SDS011;4004;42.624;23.386;2022-10-13T09:39:44;18.63;;;12.43;;
7917;SDS011;4004;42.624;23.386;2022-10-13T09:42:18;24.20;;;12.83;;
7917;SDS011;4004;42.624;23.386;2022-10-13T09:44:54;19.27;;;13.30;;
7917;SDS011;4004;42.624;23.386;2022-10-13T09:47:23;15.93;;;13.03;;
7917;SDS011;4004;42.624;23.386;2022-10-13T09:49:59;17.87;;;12.27;;
7917;SDS011;4004;42.624;23.386;2022-10-13T09:52:31;18.70;;;12.73;;
7917;SDS011;4004;42.624;23.386;2022-10-13T09:54:58;16.13;;;12.90;;
7917;SDS011;4004;42.624;23.386;2022-10-13T09:57:27;17.27;;;12.37;;
7917;SDS011;4004;42.624;23.386;2022-10-13T10:00:10;17.30;;;12.17;;
7917;SDS011;4004;42.624;23.386;2022-10-13T10:02:40;28.20;;;12.73;;
7917;SDS011;4004;42.624;23.386;2022-10-13T10:05:14;19.10;;;12.33;;
7917;SDS011;4004;42.624;23.386;2022-10-13T10:07:49;18.20;;;12.80;;
7917;SDS011;4004;42.624;23.386;2022-10-13T10:10:21;17.67;;;12.97;;
7917;SDS011;4004;42.624;23.386;2022-10-13T10:12:55;18.30;;;12.03;;
7917;SDS011;4004;42.624;23.386;2022-10-13T10:15:23;18.67;;;13.03;;
7917;SDS011;4004;42.624;23.386;2022-10-13T10:17:56;21.73;;;13.10;;
7917;SDS011;4004;42.624;23.386;2022-10-13T10:23:31;18.60;;;13.37;;
7917;SDS011;4004;42.624;23.386;2022-10-13T10:26:08;20.80;;;12.30;;
7917;SDS011;4004;42.624;23.386;2022-10-13T10:28:47;16.93;;;11.37;;
7917;SDS011;4004;42.624;23.386;2022-10-13T10:31:34;18.50;;;11.57;;
7917;SDS011;4004;42.624;23.386;2022-10-13T10:37:12;22.37;;;12.27;;
7917;SDS011;4004;42.624;23.386;2022-10-13T10:39:47;19.17;;;11.00;;
7917;SDS011;4004;42.624;23.386;2022-10-13T10:42:20;18.30;;;11.50;;
7917;SDS011;4004;42.624;23.386;2022-10-13T10:45:03;16.93;;;11.27;;
7917;SDS011;4004;42.624;23.386;2022-10-13T10:47:42;14.37;;;10.90;;
7917;SDS011;4004;42.624;23.386;2022-10-13T10:50:13;21.20;;;10.90;;
7917;SDS011;4004;42.624;23.386;2022-10-13T10:52:43;21.17;;;10.27;;
7917;SDS011;4004;42.624;23.386;2022-10-13T10:55:21;18.83;;;10.53;;
7917;SDS011;4004;42.624;23.386;2022-10-13T10:57:56;20.03;;;11.20;;
7917;SDS011;4004;42.624;23.386;2022-10-13T11:00:32;18.17;;;12.73;;
7917;SDS011;4004;42.624;23.386;2022-10-13T11:03:06;14.80;;;10.97;;
7917;SDS011;4004;42.624;23.386;2022-10-13T11:05:58;18.17;;;9.80;;
7917;SDS011;4004;42.624;23.386;2022-10-13T11:08:28;27.10;;;10.23;;
7917;SDS011;4004;42.624;23.386;2022-10-13T11:14:30;14.50;;;9.90;;
7917;SDS011;4004;42.624;23.386;2022-10-13T11:17:13;18.20;;;11.00;;
7917;SDS011;4004;42.624;23.386;2022-10-13T11:19:43;16.97;;;10.00;;
7917;SDS011;4004;42.624;23.386;2022-10-13T11:22:12;13.10;;;9.50;;
7917;SDS011;4004;42.624;23.386;2022-10-13T11:24:44;13.23;;;9.87;;
7917;SDS011;4004;42.624;23.386;2022-10-13T11:27:22;16.57;;;9.17;;
7917;SDS011;4004;42.624;23.386;2022-10-13T11:29:53;9.70;;;7.93;;
7917;SDS011;4004;42.624;23.386;2022-10-13T11:32:41;10.77;;;8.60;;
7917;SDS011;4004;42.624;23.386;2022-10-13T11:35:20;20.17;;;8.37;;
7917;SDS011;4004;42.624;23.386;2022-10-13T11:38:02;12.47;;;8.73;;
7917;SDS011;4004;42.624;23.386;2022-10-13T11:40:56;12.67;;;9.63;;
7917;SDS011;4004;42.624;23.386;2022-10-13T11:43:38;13.43;;;9.13;;
7917;SDS011;4004;42.624;23.386;2022-10-13T11:49:12;13.17;;;8.17;;
7917;SDS011;4004;42.624;23.386;2022-10-13T11:51:57;14.50;;;8.17;;
7917;SDS011;4004;42.624;23.386;2022-10-13T11:54:38;15.27;;;8.10;;
7917;SDS011;4004;42.624;23.386;2022-10-13T11:57:19;13.60;;;8.47;;
7917;SDS011;4004;42.624;23.386;2022-10-13T11:59:47;11.47;;;8.00;;
7917;SDS011;4004;42.624;23.386;2022-10-13T12:02:17;19.03;;;9.00;;
7917;SDS011;4004;42.624;23.386;2022-10-13T12:04:44;10.70;;;8.37;;
7917;SDS011;4004;42.624;23.386;2022-10-13T12:07:24;13.50;;;8.43;;
7917;SDS011;4004;42.624;23.386;2022-10-13T12:09:57;18.17;;;8.30;;
7917;SDS011;4004;42.624;23.386;2022-10-13T12:12:24;17.60;;;9.10;;
7917;SDS011;4004;42.624;23.386;2022-10-13T12:14:52;14.60;;;8.20;;
7917;SDS011;4004;42.624;23.386;2022-10-13T12:17:22;14.13;;;8.17;;
7917;SDS011;4004;42.624;23.386;2022-10-13T12:19:54;15.03;;;8.43;;
7917;SDS011;4004;42.624;23.386;2022-10-13T12:22:22;12.00;;;7.90;;
7917;SDS011;4004;42.624;23.386;2022-10-13T12:24:55;16.37;;;8.57;;
7917;SDS011;4004;42.624;23.386;2022-10-13T12:27:24;14.37;;;8.57;;
7917;SDS011;4004;42.624;23.386;2022-10-13T12:29:51;14.53;;;8.90;;
7917;SDS011;4004;42.624;23.386;2022-10-13T12:32:18;15.20;;;8.67;;
7917;SDS011;4004;42.624;23.386;2022-10-13T12:34:48;18.97;;;8.03;;
7917;SDS011;4004;42.624;23.386;2022-10-13T12:37:17;14.50;;;8.10;;
7917;SDS011;4004;42.624;23.386;2022-10-13T12:39:51;14.87;;;8.57;;
7917;SDS011;4004;42.624;23.386;2022-10-13T12:42:19;17.07;;;9.67;;
7917;SDS011;4004;42.624;23.386;2022-10-13T12:44:51;14.83;;;9.73;;
7917;SDS011;4004;42.624;23.386;2022-10-13T12:47:37;16.53;;;9.50;;
7917;SDS011;4004;42.624;23.386;2022-10-13T12:53:11;16.17;;;9.93;;
7917;SDS011;4004;42.624;23.386;2022-10-13T12:55:45;19.77;;;9.47;;
7917;SDS011;4004;42.624;23.386;2022-10-13T12:58:16;20.70;;;10.07;;
7917;SDS011;4004;42.624;23.386;2022-10-13T13:00:53;17.17;;;9.27;;
7917;SDS011;4004;42.624;23.386;2022-10-13T13:03:24;22.23;;;8.93;;
7917;SDS011;4004;42.624;23.386;2022-10-13T13:14:47;14.87;;;8.50;;
7917;SDS011;4004;42.624;23.386;2022-10-13T13:17:20;16.70;;;9.00;;
7917;SDS011;4004;42.624;23.386;2022-10-13T13:19:50;16.10;;;9.93;;
7917;SDS011;4004;42.624;23.386;2022-10-13T13:22:19;18.80;;;8.83;;
7917;SDS011;4004;42.624;23.386;2022-10-13T13:24:45;24.30;;;9.63;;
7917;SDS011;4004;42.624;23.386;2022-10-13T13:27:15;14.17;;;9.27;;
7917;SDS011;4004;42.624;23.386;2022-10-13T13:29:44;17.83;;;8.70;;
7917;SDS011;4004;42.624;23.386;2022-10-13T13:32:11;17.53;;;8.10;;
7917;SDS011;4004;42.624;23.386;2022-10-13T13:34:38;23.93;;;9.83;;
7917;SDS011;4004;42.624;23.386;2022-10-13T13:37:07;19.13;;;8.83;;
7917;SDS011;4004;42.624;23.386;2022-10-13T13:39:38;15.07;;;8.50;;
7917;SDS011;4004;42.624;23.386;2022-10-13T13:42:07;15.10;;;8.03;;
7917;SDS011;4004;42.624;23.386;2022-10-13T13:44:38;11.27;;;7.47;;
7917;SDS011;4004;42.624;23.386;2022-10-13T13:47:07;14.90;;;7.00;;
7917;SDS011;4004;42.624;23.386;2022-10-13T13:49:40;20.57;;;7.87;;
7917;SDS011;4004;42.624;23.386;2022-10-13T13:52:06;20.40;;;7.77;;
7917;SDS011;4004;42.624;23.386;2022-10-13T13:54:33;19.37;;;8.83;;
7917;SDS011;4004;42.624;23.386;2022-10-13T13:57:01;17.47;;;7.90;;
7917;SDS011;4004;42.624;23.386;2022-10-13T13:59:28;18.57;;;7.63;;
7917;SDS011;4004;42.624;23.386;2022-10-13T14:01:55;18.27;;;8.20;;
7917;SDS011;4004;42.624;23.386;2022-10-13T14:04:22;15.60;;;8.10;;
7917;SDS011;4004;42.624;23.386;2022-10-13T14:06:49;9.60;;;7.47;;
7917;SDS011;4004;42.624;23.386;2022-10-13T14:09:16;14.57;;;7.83;;
7917;SDS011;4004;42.624;23.386;2022-10-13T14:11:43;9.13;;;7.00;;
7917;SDS011;4004;42.624;23.386;2022-10-13T14:14:11;16.80;;;7.43;;
7917;SDS011;4004;42.624;23.386;2022-10-13T14:16:38;9.83;;;7.03;;
7917;SDS011;4004;42.624;23.386;2022-10-13T14:19:05;14.10;;;7.07;;
7917;SDS011;4004;42.624;23.386;2022-10-13T14:21:32;23.50;;;7.10;;
7917;SDS011;4004;42.624;23.386;2022-10-13T14:24:00;12.97;;;7.47;;
7917;SDS011;4004;42.624;23.386;2022-10-13T14:26:27;9.57;;;6.70;;
7917;SDS011;4004;42.624;23.386;2022-10-13T14:28:54;9.40;;;6.50;;
7917;SDS011;4004;42.624;23.386;2022-10-13T14:31:23;12.03;;;6.67;;
7917;SDS011;4004;42.624;23.386;2022-10-13T14:33:50;8.70;;;6.87;;
7917;SDS011;4004;42.624;23.386;2022-10-13T14:36:17;13.20;;;6.63;;
7917;SDS011;4004;42.624;23.386;2022-10-13T14:38:44;12.93;;;6.50;;
7917;SDS011;4004;42.624;23.386;2022-10-13T14:41:10;19.03;;;7.93;;
7917;SDS011;4004;42.624;23.386;2022-10-13T14:43:37;9.23;;;6.67;;
7917;SDS011;4004;42.624;23.386;2022-10-13T14:46:04;16.37;;;6.50;;
7917;SDS011;4004;42.624;23.386;2022-10-13T14:48:33;13.90;;;6.77;;
7917;SDS011;4004;42.624;23.386;2022-10-13T14:51:02;18.90;;;7.20;;
7917;SDS011;4004;42.624;23.386;2022-10-13T14:53:31;21.60;;;8.00;;
7917;SDS011;4004;42.624;23.386;2022-10-13T14:55:58;19.87;;;8.30;;
7917;SDS011;4004;42.624;23.386;2022-10-13T14:58:25;21.77;;;7.67;;
7917;SDS011;4004;42.624;23.386;2022-10-13T15:00:52;14.70;;;7.53;;
7917;SDS011;4004;42.624;23.386;2022-10-13T15:03:19;29.13;;;9.27;;
7917;SDS011;4004;42.624;23.386;2022-10-13T15:05:47;25.60;;;8.33;;
7917;SDS011;4004;42.624;23.386;2022-10-13T15:08:14;14.40;;;7.33;;
7917;SDS011;4004;42.624;23.386;2022-10-13T15:10:41;11.00;;;5.83;;
7917;SDS011;4004;42.624;23.386;2022-10-13T15:13:09;8.20;;;5.47;;
7917;SDS011;4004;42.624;23.386;2022-10-13T15:15:36;7.30;;;5.70;;
7917;SDS011;4004;42.624;23.386;2022-10-13T15:18:03;12.80;;;6.47;;
7917;SDS011;4004;42.624;23.386;2022-10-13T15:20:29;12.27;;;6.33;;